sensor_id;sensor_type;location;lat;lon;timestamp;P1;durP1;ratioP1;P2;durP2;ratioP2
1164;SDS011;571;50.930;6.926;2022-12-18T03:46:26;13.55;;;11.45;;
1164;SDS011;571;50.930;6.926;2022-12-18T03:48:59;19.08;;;12.30;;
1164;SDS011;571;50.930;6.926;2022-12-18T03:51:31;17.10;;;13.23;;
1164;SDS011;571;50.930;6.926;2022-12-18T03:54:14;21.67;;;12.80;;
1164;SDS011;571;50.930;6.926;2022-12-18T03:56:45;14.30;;;11.82;;
1164;SDS011;571;50.930;6.926;2022-12-18T03:59:15;17.13;;;12.55;;
1164;SDS011;571;50.930;6.926;2022-12-18T04:01:45;19.25;;;12.82;;
1164;SDS011;571;50.930;6.926;2022-12-18T04:04:14;18.52;;;13.38;;
1164;SDS011;571;50.930;6.926;2022-12-18T04:06:44;12.82;;;10.05;;
1164;SDS011;571;50.930;6.926;2022-12-18T04:09:13;20.33;;;12.75;;
1164;SDS011;571;50.930;6.926;2022-12-18T04:11:40;17.45;;;10.32;;
1164;SDS011;571;50.930;6.926;2022-12-18T04:14:09;19.77;;;14.55;;
1164;SDS011;571;50.930;6.926;2022-12-18T04:16:36;18.58;;;13.70;;
1164;SDS011;571;50.930;6.926;2022-12-18T04:19:04;17.38;;;11.90;;
1164;SDS011;571;50.930;6.926;2022-12-18T04:21:32;20.83;;;12.70;;
1164;SDS011;571;50.930;6.926;2022-12-18T04:23:58;16.25;;;12.27;;
1164;SDS011;571;50.930;6.926;2022-12-18T04:26:25;22.17;;;14.20;;
1164;SDS011;571;50.930;6.926;2022-12-18T04:28:52;21.67;;;14.63;;
1164;SDS011;571;50.930;6.926;2022-12-18T04:31:19;24.88;;;13.63;;
1164;SDS011;571;50.930;6.926;2022-12-18T04:33:45;15.85;;;12.57;;
1164;SDS011;571;50.930;6.926;2022-12-18T04:36:13;17.10;;;13.15;;
1164;SDS011;571;50.930;6.926;2022-12-18T04:38:40;14.18;;;11.57;;
1164;SDS011;571;50.930;6.926;2022-12-18T04:41:07;18.27;;;13.25;;
1164;SDS011;571;50.930;6.926;2022-12-18T04:43:34;22.83;;;14.07;;
1164;SDS011;571;50.930;6.926;2022-12-18T04:46:01;25.02;;;14.93;;
1164;SDS011;571;50.930;6.926;2022-12-18T04:48:28;22.25;;;15.40;;
1164;SDS011;571;50.930;6.926;2022-12-18T04:50:55;21.35;;;14.07;;
1164;SDS011;571;50.930;6.926;2022-12-18T04:53:23;20.38;;;14.65;;
1164;SDS011;571;50.930;6.926;2022-12-18T04:55:50;16.48;;;13.23;;
1164;SDS011;571;50.930;6.926;2022-12-18T04:58:27;20.80;;;12.95;;
1164;SDS011;571;50.930;6.926;2022-12-18T05:00:54;24.27;;;15.55;;
1164;SDS011;571;50.930;6.926;2022-12-18T05:03:21;18.95;;;13.35;;
1164;SDS011;571;50.930;6.926;2022-12-18T05:05:48;16.77;;;10.75;;
1164;SDS011;571;50.930;6.926;2022-12-18T05:08:15;26.55;;;15.43;;
1164;SDS011;571;50.930;6.926;2022-12-18T05:10:44;19.40;;;15.65;;
1164;SDS011;571;50.930;6.926;2022-12-18T05:13:13;20.08;;;13.55;;
1164;SDS011;571;50.930;6.926;2022-12-18T05:15:40;20.40;;;15.85;;
1164;SDS011;571;50.930;6.926;2022-12-18T05:18:08;24.50;;;16.77;;
1164;SDS011;571;50.930;6.926;2022-12-18T05:20:41;20.90;;;14.63;;
1164;SDS011;571;50.930;6.926;2022-12-18T05:23:07;16.92;;;13.15;;
1164;SDS011;571;50.930;6.926;2022-12-18T05:25:34;21.88;;;14.70;;
1164;SDS011;571;50.930;6.926;2022-12-18T05:28:02;20.80;;;13.40;;
1164;SDS011;571;50.930;6.926;2022-12-18T05:30:30;20.95;;;14.60;;
1164;SDS011;571;50.930;6.926;2022-12-18T05:32:56;19.42;;;13.45;;
1164;SDS011;571;50.930;6.926;2022-12-18T05:35:26;18.10;;;12.80;;
1164;SDS011;571;50.930;6.926;2022-12-18T05:37:57;21.85;;;13.85;;
1164;SDS011;571;50.930;6.926;2022-12-18T05:40:24;15.88;;;9.63;;
1164;SDS011;571;50.930;6.926;2022-12-18T05:42:51;21.83;;;15.18;;
1164;SDS011;571;50.930;6.926;2022-12-18T05:45:19;9.95;;;8.18;;
1164;SDS011;571;50.930;6.926;2022-12-18T05:47:46;17.77;;;12.63;;
1164;SDS011;571;50.930;6.926;2022-12-18T05:50:13;21.63;;;14.32;;
1164;SDS011;571;50.930;6.926;2022-12-18T05:52:39;21.00;;;13.88;;
1164;SDS011;571;50.930;6.926;2022-12-18T05:55:07;27.10;;;16.40;;
1164;SDS011;571;50.930;6.926;2022-12-18T05:57:34;20.00;;;13.65;;
1164;SDS011;571;50.930;6.926;2022-12-18T06:00:01;29.00;;;15.27;;
1164;SDS011;571;50.930;6.926;2022-12-18T06:02:29;16.92;;;11.93;;
1164;SDS011;571;50.930;6.926;2022-12-18T06:04:55;22.23;;;14.60;;
1164;SDS011;571;50.930;6.926;2022-12-18T06:07:22;19.73;;;14.15;;
1164;SDS011;571;50.930;6.926;2022-12-18T06:09:49;20.50;;;15.63;;
1164;SDS011;571;50.930;6.926;2022-12-18T06:12:16;21.75;;;14.20;;
1164;SDS011;571;50.930;6.926;2022-12-18T06:14:42;14.75;;;10.82;;
1164;SDS011;571;50.930;6.926;2022-12-18T06:17:12;22.27;;;14.45;;
1164;SDS011;571;50.930;6.926;2022-12-18T06:19:42;24.92;;;15.32;;
1164;SDS011;571;50.930;6.926;2022-12-18T06:22:12;26.23;;;15.45;;
1164;SDS011;571;50.930;6.926;2022-12-18T06:24:42;28.23;;;16.35;;
1164;SDS011;571;50.930;6.926;2022-12-18T06:27:10;20.55;;;13.50;;
1164;SDS011;571;50.930;6.926;2022-12-18T06:29:43;18.13;;;13.57;;
1164;SDS011;571;50.930;6.926;2022-12-18T06:32:13;21.42;;;13.88;;
1164;SDS011;571;50.930;6.926;2022-12-18T06:34:45;21.42;;;14.35;;
1164;SDS011;571;50.930;6.926;2022-12-18T06:37:12;28.10;;;16.88;;
1164;SDS011;571;50.930;6.926;2022-12-18T06:39:39;17.00;;;14.00;;
1164;SDS011;571;50.930;6.926;2022-12-18T06:42:09;20.58;;;13.25;;
1164;SDS011;571;50.930;6.926;2022-12-18T06:44:41;20.20;;;14.75;;
1164;SDS011;571;50.930;6.926;2022-12-18T06:47:08;21.50;;;15.77;;
1164;SDS011;571;50.930;6.926;2022-12-18T06:49:39;20.77;;;16.73;;
1164;SDS011;571;50.930;6.926;2022-12-18T06:52:07;24.15;;;16.20;;
1164;SDS011;571;50.930;6.926;2022-12-18T06:54:34;20.33;;;13.80;;
1164;SDS011;571;50.930;6.926;2022-12-18T06:57:01;21.52;;;14.23;;
1164;SDS011;571;50.930;6.926;2022-12-18T06:59:28;21.05;;;16.05;;
1164;SDS011;571;50.930;6.926;2022-12-18T07:01:54;22.08;;;14.80;;
1164;SDS011;571;50.930;6.926;2022-12-18T07:04:21;23.33;;;17.63;;
1164;SDS011;571;50.930;6.926;2022-12-18T07:06:48;22.55;;;14.07;;
1164;SDS011;571;50.930;6.926;2022-12-18T07:09:17;25.25;;;16.83;;
1164;SDS011;571;50.930;6.926;2022-12-18T07:11:52;23.42;;;13.95;;
1164;SDS011;571;50.930;6.926;2022-12-18T07:14:19;23.15;;;15.82;;
1164;SDS011;571;50.930;6.926;2022-12-18T07:16:51;27.88;;;17.25;;
1164;SDS011;571;50.930;6.926;2022-12-18T07:19:28;20.52;;;15.68;;
1164;SDS011;571;50.930;6.926;2022-12-18T07:21:56;23.42;;;16.48;;
1164;SDS011;571;50.930;6.926;2022-12-18T07:24:28;26.67;;;16.55;;
1164;SDS011;571;50.930;6.926;2022-12-18T07:27:00;23.08;;;15.27;;
1164;SDS011;571;50.930;6.926;2022-12-18T07:29:31;24.55;;;17.60;;
1164;SDS011;571;50.930;6.926;2022-12-18T07:32:09;15.93;;;12.52;;
1164;SDS011;571;50.930;6.926;2022-12-18T07:34:54;23.67;;;12.63;;
1164;SDS011;571;50.930;6.926;2022-12-18T07:37:37;23.45;;;14.75;;
1164;SDS011;571;50.930;6.926;2022-12-18T07:40:08;18.38;;;13.05;;
1164;SDS011;571;50.930;6.926;2022-12-18T07:42:51;18.70;;;13.90;;
1164;SDS011;571;50.930;6.926;2022-12-18T07:45:21;22.88;;;13.55;;
1164;SDS011;571;50.930;6.926;2022-12-18T07:50:47;9.73;;;7.97;;
1164;SDS011;571;50.930;6.926;2022-12-18T07:53:17;22.45;;;14.90;;
1164;SDS011;571;50.930;6.926;2022-12-18T07:55:54;18.65;;;14.02;;
1164;SDS011;571;50.930;6.926;2022-12-18T07:58:22;21.85;;;15.27;;
1164;SDS011;571;50.930;6.926;2022-12-18T08:00:53;21.75;;;13.30;;
1164;SDS011;571;50.930;6.926;2022-12-18T08:03:31;20.05;;;15.73;;
1164;SDS011;571;50.930;6.926;2022-12-18T08:06:02;22.35;;;15.02;;
1164;SDS011;571;50.930;6.926;2022-12-18T08:08:30;27.15;;;16.80;;
1164;SDS011;571;50.930;6.926;2022-12-18T08:10:59;21.42;;;14.15;;
1164;SDS011;571;50.930;6.926;2022-12-18T08:13:30;21.50;;;15.50;;
1164;SDS011;571;50.930;6.926;2022-12-18T08:15:57;23.52;;;14.63;;
1164;SDS011;571;50.930;6.926;2022-12-18T08:18:25;21.75;;;16.13;;
1164;SDS011;571;50.930;6.926;2022-12-18T08:20:53;18.67;;;11.50;;
1164;SDS011;571;50.930;6.926;2022-12-18T08:23:22;18.48;;;11.00;;
1164;SDS011;571;50.930;6.926;2022-12-18T08:25:56;22.63;;;14.30;;
1164;SDS011;571;50.930;6.926;2022-12-18T08:28:27;26.27;;;18.45;;
1164;SDS011;571;50.930;6.926;2022-12-18T08:30:55;23.50;;;16.48;;
1164;SDS011;571;50.930;6.926;2022-12-18T08:33:22;19.38;;;14.50;;
1164;SDS011;571;50.930;6.926;2022-12-18T08:35:49;26.23;;;17.08;;
1164;SDS011;571;50.930;6.926;2022-12-18T08:38:22;23.58;;;14.77;;
1164;SDS011;571;50.930;6.926;2022-12-18T08:40:53;23.45;;;13.63;;
1164;SDS011;571;50.930;6.926;2022-12-18T08:43:27;24.00;;;14.23;;
1164;SDS011;571;50.930;6.926;2022-12-18T08:46:21;20.35;;;14.63;;
1164;SDS011;571;50.930;6.926;2022-12-18T08:48:50;23.40;;;16.40;;
1164;SDS011;571;50.930;6.926;2022-12-18T08:51:18;21.17;;;13.02;;
1164;SDS011;571;50.930;6.926;2022-12-18T08:53:49;18.92;;;13.30;;
1164;SDS011;571;50.930;6.926;2022-12-18T08:56:17;20.67;;;14.32;;
1164;SDS011;571;50.930;6.926;2022-12-18T08:58:50;17.38;;;13.95;;
1164;SDS011;571;50.930;6.926;2022-12-18T09:01:18;21.60;;;16.45;;
1164;SDS011;571;50.930;6.926;2022-12-18T09:03:53;22.55;;;14.93;;
1164;SDS011;571;50.930;6.926;2022-12-18T09:06:22;19.33;;;14.52;;
1164;SDS011;571;50.930;6.926;2022-12-18T09:08:51;20.30;;;14.85;;
1164;SDS011;571;50.930;6.926;2022-12-18T09:11:19;23.40;;;15.10;;
1164;SDS011;571;50.930;6.926;2022-12-18T09:13:58;18.15;;;14.57;;
1164;SDS011;571;50.930;6.926;2022-12-18T09:16:27;25.42;;;17.98;;
1164;SDS011;571;50.930;6.926;2022-12-18T09:18:56;19.58;;;14.27;;
1164;SDS011;571;50.930;6.926;2022-12-18T09:21:28;21.55;;;14.55;;
1164;SDS011;571;50.930;6.926;2022-12-18T09:24:04;19.27;;;13.18;;
1164;SDS011;571;50.930;6.926;2022-12-18T09:26:52;19.00;;;12.65;;
1164;SDS011;571;50.930;6.926;2022-12-18T09:29:26;17.60;;;12.57;;
1164;SDS011;571;50.930;6.926;2022-12-18T09:31:53;22.92;;;13.68;;
1164;SDS011;571;50.930;6.926;2022-12-18T09:34:26;19.60;;;14.68;;
1164;SDS011;571;50.930;6.926;2022-12-18T09:37:01;17.98;;;13.82;;
1164;SDS011;571;50.930;6.926;2022-12-18T09:39:30;21.80;;;15.07;;
1164;SDS011;571;50.930;6.926;2022-12-18T09:42:04;19.08;;;13.23;;
1164;SDS011;571;50.930;6.926;2022-12-18T09:44:40;16.35;;;12.88;;
1164;SDS011;571;50.930;6.926;2022-12-18T09:47:22;25.00;;;16.40;;
1164;SDS011;571;50.930;6.926;2022-12-18T09:49:58;20.77;;;16.20;;
1164;SDS011;571;50.930;6.926;2022-12-18T09:52:28;17.75;;;13.57;;
1164;SDS011;571;50.930;6.926;2022-12-18T09:55:22;18.88;;;14.77;;
1164;SDS011;571;50.930;6.926;2022-12-18T09:57:55;21.23;;;13.40;;
1164;SDS011;571;50.930;6.926;2022-12-18T10:03:53;20.08;;;13.60;;
1164;SDS011;571;50.930;6.926;2022-12-18T10:06:22;21.02;;;13.75;;
1164;SDS011;571;50.930;6.926;2022-12-18T10:19:33;20.55;;;13.85;;
1164;SDS011;571;50.930;6.926;2022-12-18T10:22:34;17.20;;;13.23;;
1164;SDS011;571;50.930;6.926;2022-12-18T10:32:24;15.50;;;10.77;;
1164;SDS011;571;50.930;6.926;2022-12-18T10:39:23;18.63;;;13.20;;
1164;SDS011;571;50.930;6.926;2022-12-18T10:41:58;14.50;;;11.65;;
1164;SDS011;571;50.930;6.926;2022-12-18T10:48:02;18.92;;;14.18;;
1164;SDS011;571;50.930;6.926;2022-12-18T10:50:51;19.45;;;11.77;;
1164;SDS011;571;50.930;6.926;2022-12-18T10:53:34;11.38;;;9.15;;
1164;SDS011;571;50.930;6.926;2022-12-18T10:56:27;21.42;;;12.93;;
1164;SDS011;571;50.930;6.926;2022-12-18T10:59:10;22.05;;;16.23;;
1164;SDS011;571;50.930;6.926;2022-12-18T11:01:54;16.48;;;13.05;;
1164;SDS011;571;50.930;6.926;2022-12-18T11:04:25;18.48;;;13.68;;
1164;SDS011;571;50.930;6.926;2022-12-18T11:07:00;14.20;;;9.82;;
1164;SDS011;571;50.930;6.926;2022-12-18T11:09:36;17.30;;;12.63;;
1164;SDS011;571;50.930;6.926;2022-12-18T11:12:36;16.58;;;12.10;;
1164;SDS011;571;50.930;6.926;2022-12-18T11:15:13;16.33;;;12.27;;
1164;SDS011;571;50.930;6.926;2022-12-18T11:17:59;17.13;;;13.60;;
1164;SDS011;571;50.930;6.926;2022-12-18T11:26:07;18.53;;;13.07;;
1164;SDS011;571;50.930;6.926;2022-12-18T11:28:45;19.17;;;13.57;;
1164;SDS011;571;50.930;6.926;2022-12-18T11:35:58;23.45;;;13.43;;
1164;SDS011;571;50.930;6.926;2022-12-18T11:39:03;18.05;;;13.52;;
1164;SDS011;571;50.930;6.926;2022-12-18T11:41:41;17.45;;;13.30;;
1164;SDS011;571;50.930;6.926;2022-12-18T13:00:14;21.15;;;14.05;;
1164;SDS011;571;50.930;6.926;2022-12-18T13:02:54;14.15;;;10.45;;
1164;SDS011;571;50.930;6.926;2022-12-18T13:05:46;22.73;;;15.55;;
1164;SDS011;571;50.930;6.926;2022-12-18T13:08:32;23.40;;;15.80;;
1164;SDS011;571;50.930;6.926;2022-12-18T13:12:08;21.67;;;15.30;;
1164;SDS011;571;50.930;6.926;2022-12-18T13:15:13;18.27;;;13.73;;
1164;SDS011;571;50.930;6.926;2022-12-18T13:17:51;22.55;;;15.48;;
1164;SDS011;571;50.930;6.926;2022-12-18T13:20:37;22.00;;;14.97;;
1164;SDS011;571;50.930;6.926;2022-12-18T13:25:55;18.98;;;14.40;;
1164;SDS011;571;50.930;6.926;2022-12-18T13:28:22;19.38;;;16.33;;
1164;SDS011;571;50.930;6.926;2022-12-18T13:31:57;21.98;;;15.35;;
1164;SDS011;571;50.930;6.926;2022-12-18T13:34:26;20.60;;;16.75;;
1164;SDS011;571;50.930;6.926;2022-12-18T13:36:56;23.67;;;17.45;;
1164;SDS011;571;50.930;6.926;2022-12-18T13:39:58;16.90;;;10.15;;
1164;SDS011;571;50.930;6.926;2022-12-18T13:42:39;20.10;;;16.50;;
1164;SDS011;571;50.930;6.926;2022-12-18T13:45:37;23.33;;;16.33;;
1164;SDS011;571;50.930;6.926;2022-12-18T13:48:15;24.35;;;16.42;;
1164;SDS011;571;50.930;6.926;2022-12-18T13:53:27;22.23;;;13.20;;
1164;SDS011;571;50.930;6.926;2022-12-18T13:55:56;21.97;;;16.60;;
1164;SDS011;571;50.930;6.926;2022-12-18T13:58:24;25.27;;;16.70;;
1164;SDS011;571;50.930;6.926;2022-12-18T14:00:53;23.55;;;16.52;;
1164;SDS011;571;50.930;6.926;2022-12-18T14:06:12;25.58;;;14.18;;
1164;SDS011;571;50.930;6.926;2022-12-18T14:09:45;21.10;;;15.27;;
1164;SDS011;571;50.930;6.926;2022-12-18T14:16:21;31.75;;;16.92;;
1164;SDS011;571;50.930;6.926;2022-12-18T14:19:37;28.60;;;19.60;;
1164;SDS011;571;50.930;6.926;2022-12-18T14:22:29;29.50;;;18.23;;
1164;SDS011;571;50.930;6.926;2022-12-18T14:25:20;23.63;;;16.27;;
1164;SDS011;571;50.930;6.926;2022-12-18T14:28:22;26.35;;;15.60;;
1164;SDS011;571;50.930;6.926;2022-12-18T14:33:59;27.17;;;15.25;;
1164;SDS011;571;50.930;6.926;2022-12-18T14:42:44;28.08;;;17.48;;
1164;SDS011;571;50.930;6.926;2022-12-18T14:45:46;22.27;;;16.48;;
1164;SDS011;571;50.930;6.926;2022-12-18T14:52:02;26.98;;;17.63;;
1164;SDS011;571;50.930;6.926;2022-12-18T14:58:17;27.23;;;16.13;;
1164;SDS011;571;50.930;6.926;2022-12-18T15:01:14;23.55;;;16.70;;
1164;SDS011;571;50.930;6.926;2022-12-18T15:07:17;23.30;;;17.17;;
1164;SDS011;571;50.930;6.926;2022-12-18T15:13:48;22.35;;;17.45;;
1164;SDS011;571;50.930;6.926;2022-12-18T15:26:36;26.98;;;16.42;;
1164;SDS011;571;50.930;6.926;2022-12-18T15:34:43;22.23;;;12.93;;
1164;SDS011;571;50.930;6.926;2022-12-18T15:37:13;24.73;;;16.23;;
1164;SDS011;571;50.930;6.926;2022-12-18T15:39:51;24.52;;;18.00;;
1164;SDS011;571;50.930;6.926;2022-12-18T15:42:36;20.20;;;15.05;;
1164;SDS011;571;50.930;6.926;2022-12-18T15:45:32;28.10;;;17.38;;
1164;SDS011;571;50.930;6.926;2022-12-18T15:48:31;11.63;;;9.02;;
1164;SDS011;571;50.930;6.926;2022-12-18T16:01:27;28.85;;;19.33;;
1164;SDS011;571;50.930;6.926;2022-12-18T16:03:55;29.48;;;19.98;;
1164;SDS011;571;50.930;6.926;2022-12-18T16:06:22;31.58;;;20.13;;
1164;SDS011;571;50.930;6.926;2022-12-18T16:08:49;27.73;;;18.60;;
1164;SDS011;571;50.930;6.926;2022-12-18T16:11:19;24.55;;;17.45;;
1164;SDS011;571;50.930;6.926;2022-12-18T16:14:02;26.88;;;18.70;;
1164;SDS011;571;50.930;6.926;2022-12-18T16:16:31;27.13;;;20.00;;
1164;SDS011;571;50.930;6.926;2022-12-18T16:18:58;22.58;;;16.35;;
1164;SDS011;571;50.930;6.926;2022-12-18T16:21:25;21.83;;;13.88;;
1164;SDS011;571;50.930;6.926;2022-12-18T16:23:52;27.20;;;19.65;;
1164;SDS011;571;50.930;6.926;2022-12-18T16:26:19;20.38;;;13.63;;
1164;SDS011;571;50.930;6.926;2022-12-18T16:28:45;18.13;;;14.35;;
1164;SDS011;571;50.930;6.926;2022-12-18T16:31:12;27.77;;;18.08;;
1164;SDS011;571;50.930;6.926;2022-12-18T16:33:45;27.13;;;19.40;;
1164;SDS011;571;50.930;6.926;2022-12-18T16:36:40;9.93;;;8.73;;
1164;SDS011;571;50.930;6.926;2022-12-18T16:39:10;22.52;;;16.38;;
1164;SDS011;571;50.930;6.926;2022-12-18T16:41:41;24.55;;;17.25;;
1164;SDS011;571;50.930;6.926;2022-12-18T16:44:23;28.08;;;18.70;;
1164;SDS011;571;50.930;6.926;2022-12-18T16:47:04;20.67;;;14.73;;
1164;SDS011;571;50.930;6.926;2022-12-18T16:49:34;24.35;;;15.90;;
1164;SDS011;571;50.930;6.926;2022-12-18T16:52:00;23.02;;;15.80;;
1164;SDS011;571;50.930;6.926;2022-12-18T16:54:27;29.67;;;20.02;;
1164;SDS011;571;50.930;6.926;2022-12-18T16:57:02;33.78;;;19.52;;
1164;SDS011;571;50.930;6.926;2022-12-18T16:59:30;31.63;;;21.17;;
1164;SDS011;571;50.930;6.926;2022-12-18T17:02:04;20.90;;;14.05;;
1164;SDS011;571;50.930;6.926;2022-12-18T17:04:33;30.70;;;19.73;;
1164;SDS011;571;50.930;6.926;2022-12-18T17:07:02;35.10;;;21.52;;
1164;SDS011;571;50.930;6.926;2022-12-18T17:09:29;14.65;;;9.35;;
1164;SDS011;571;50.930;6.926;2022-12-18T17:11:56;28.80;;;18.35;;
1164;SDS011;571;50.930;6.926;2022-12-18T17:14:26;34.25;;;20.40;;
1164;SDS011;571;50.930;6.926;2022-12-18T17:16:53;30.97;;;19.90;;
1164;SDS011;571;50.930;6.926;2022-12-18T17:19:24;34.73;;;21.40;;
1164;SDS011;571;50.930;6.926;2022-12-18T17:21:53;32.23;;;20.90;;
1164;SDS011;571;50.930;6.926;2022-12-18T17:24:20;29.13;;;20.40;;
1164;SDS011;571;50.930;6.926;2022-12-18T17:26:48;24.13;;;17.07;;
1164;SDS011;571;50.930;6.926;2022-12-18T17:29:15;29.83;;;19.42;;
1164;SDS011;571;50.930;6.926;2022-12-18T17:31:46;33.58;;;22.10;;
1164;SDS011;571;50.930;6.926;2022-12-18T17:34:20;29.63;;;17.73;;
1164;SDS011;571;50.930;6.926;2022-12-18T17:36:47;29.83;;;20.42;;
1164;SDS011;571;50.930;6.926;2022-12-18T17:39:19;29.52;;;19.80;;
1164;SDS011;571;50.930;6.926;2022-12-18T17:41:48;36.40;;;22.73;;
1164;SDS011;571;50.930;6.926;2022-12-18T17:44:15;33.35;;;21.80;;
1164;SDS011;571;50.930;6.926;2022-12-18T17:46:43;32.85;;;20.20;;
1164;SDS011;571;50.930;6.926;2022-12-18T17:49:12;27.45;;;19.48;;
1164;SDS011;571;50.930;6.926;2022-12-18T17:51:41;30.08;;;21.52;;
1164;SDS011;571;50.930;6.926;2022-12-18T17:54:08;30.10;;;20.55;;
1164;SDS011;571;50.930;6.926;2022-12-18T17:56:40;17.90;;;12.57;;
1164;SDS011;571;50.930;6.926;2022-12-18T17:59:08;37.35;;;23.08;;
1164;SDS011;571;50.930;6.926;2022-12-18T18:01:40;34.15;;;21.90;;
1164;SDS011;571;50.930;6.926;2022-12-18T18:04:07;26.55;;;17.02;;
1164;SDS011;571;50.930;6.926;2022-12-18T18:06:34;37.00;;;20.85;;
1164;SDS011;571;50.930;6.926;2022-12-18T18:09:00;35.38;;;21.08;;
1164;SDS011;571;50.930;6.926;2022-12-18T18:11:27;30.63;;;22.08;;
1164;SDS011;571;50.930;6.926;2022-12-18T18:14:13;30.88;;;19.92;;
1164;SDS011;571;50.930;6.926;2022-12-18T18:16:42;32.47;;;21.10;;
1164;SDS011;571;50.930;6.926;2022-12-18T18:19:12;26.95;;;18.98;;
1164;SDS011;571;50.930;6.926;2022-12-18T18:21:41;30.02;;;20.17;;
1164;SDS011;571;50.930;6.926;2022-12-18T18:24:10;34.25;;;22.25;;
1164;SDS011;571;50.930;6.926;2022-12-18T18:26:39;67.80;;;22.70;;
1164;SDS011;571;50.930;6.926;2022-12-18T18:29:10;33.90;;;21.55;;
1164;SDS011;571;50.930;6.926;2022-12-18T18:31:41;36.55;;;18.80;;
1164;SDS011;571;50.930;6.926;2022-12-18T18:34:09;30.63;;;20.58;;
1164;SDS011;571;50.930;6.926;2022-12-18T18:36:39;34.80;;;19.95;;
1164;SDS011;571;50.930;6.926;2022-12-18T18:39:07;33.17;;;21.70;;
1164;SDS011;571;50.930;6.926;2022-12-18T18:41:40;35.10;;;22.15;;
1164;SDS011;571;50.930;6.926;2022-12-18T18:44:07;33.10;;;22.05;;
1164;SDS011;571;50.930;6.926;2022-12-18T18:46:42;25.85;;;17.52;;
1164;SDS011;571;50.930;6.926;2022-12-18T18:49:29;34.38;;;18.30;;
1164;SDS011;571;50.930;6.926;2022-12-18T18:51:56;27.65;;;20.88;;
1164;SDS011;571;50.930;6.926;2022-12-18T18:54:23;37.00;;;20.40;;
1164;SDS011;571;50.930;6.926;2022-12-18T18:56:50;37.65;;;23.45;;
1164;SDS011;571;50.930;6.926;2022-12-18T18:59:17;37.08;;;24.00;;
1164;SDS011;571;50.930;6.926;2022-12-18T19:01:45;31.73;;;21.80;;
1164;SDS011;571;50.930;6.926;2022-12-18T19:04:13;35.30;;;22.88;;
1164;SDS011;571;50.930;6.926;2022-12-18T19:06:39;32.35;;;23.90;;
1164;SDS011;571;50.930;6.926;2022-12-18T19:09:07;39.08;;;21.85;;
1164;SDS011;571;50.930;6.926;2022-12-18T19:11:33;34.90;;;22.88;;
1164;SDS011;571;50.930;6.926;2022-12-18T19:14:18;41.45;;;25.15;;
1164;SDS011;571;50.930;6.926;2022-12-18T19:16:46;32.83;;;22.25;;
1164;SDS011;571;50.930;6.926;2022-12-18T19:19:12;30.65;;;19.98;;
1164;SDS011;571;50.930;6.926;2022-12-18T19:21:41;32.33;;;23.02;;
1164;SDS011;571;50.930;6.926;2022-12-18T19:24:08;36.10;;;23.80;;
1164;SDS011;571;50.930;6.926;2022-12-18T19:26:35;29.88;;;21.50;;
1164;SDS011;571;50.930;6.926;2022-12-18T19:29:26;27.05;;;18.25;;
1164;SDS011;571;50.930;6.926;2022-12-18T19:32:00;41.80;;;24.23;;
1164;SDS011;571;50.930;6.926;2022-12-18T19:34:42;38.63;;;23.17;;
1164;SDS011;571;50.930;6.926;2022-12-18T19:37:12;37.17;;;21.93;;
1164;SDS011;571;50.930;6.926;2022-12-18T19:40:01;35.05;;;22.85;;
1164;SDS011;571;50.930;6.926;2022-12-18T19:42:28;35.30;;;24.30;;
1164;SDS011;571;50.930;6.926;2022-12-18T19:44:58;35.08;;;22.50;;
1164;SDS011;571;50.930;6.926;2022-12-18T19:47:30;38.35;;;22.30;;
1164;SDS011;571;50.930;6.926;2022-12-18T19:49:58;35.47;;;20.35;;
1164;SDS011;571;50.930;6.926;2022-12-18T19:52:27;39.47;;;23.92;;
1164;SDS011;571;50.930;6.926;2022-12-18T19:54:53;29.83;;;18.75;;
1164;SDS011;571;50.930;6.926;2022-12-18T19:57:21;30.25;;;20.95;;
1164;SDS011;571;50.930;6.926;2022-12-18T19:59:47;34.92;;;21.48;;
1164;SDS011;571;50.930;6.926;2022-12-18T20:02:17;38.20;;;20.67;;
1164;SDS011;571;50.930;6.926;2022-12-18T20:04:49;34.60;;;22.00;;
1164;SDS011;571;50.930;6.926;2022-12-18T20:07:18;28.23;;;20.42;;
1164;SDS011;571;50.930;6.926;2022-12-18T20:09:45;40.08;;;24.52;;
1164;SDS011;571;50.930;6.926;2022-12-18T20:12:12;47.13;;;24.03;;
1164;SDS011;571;50.930;6.926;2022-12-18T20:14:38;28.50;;;22.02;;
1164;SDS011;571;50.930;6.926;2022-12-18T20:17:05;31.65;;;20.10;;
1164;SDS011;571;50.930;6.926;2022-12-18T20:19:32;31.27;;;20.33;;
1164;SDS011;571;50.930;6.926;2022-12-18T20:22:00;31.75;;;20.35;;
1164;SDS011;571;50.930;6.926;2022-12-18T20:24:27;37.83;;;23.75;;
1164;SDS011;571;50.930;6.926;2022-12-18T20:26:53;31.85;;;22.15;;
1164;SDS011;571;50.930;6.926;2022-12-18T20:29:20;38.20;;;21.95;;
1164;SDS011;571;50.930;6.926;2022-12-18T20:31:47;36.50;;;23.30;;
1164;SDS011;571;50.930;6.926;2022-12-18T20:34:14;40.60;;;24.13;;
1164;SDS011;571;50.930;6.926;2022-12-18T20:36:41;36.25;;;22.30;;
1164;SDS011;571;50.930;6.926;2022-12-18T20:39:09;34.45;;;22.92;;
1164;SDS011;571;50.930;6.926;2022-12-18T20:41:36;35.65;;;21.90;;
1164;SDS011;571;50.930;6.926;2022-12-18T20:44:03;37.85;;;23.75;;
1164;SDS011;571;50.930;6.926;2022-12-18T20:46:30;32.50;;;20.45;;
1164;SDS011;571;50.930;6.926;2022-12-18T20:48:57;41.15;;;25.00;;
1164;SDS011;571;50.930;6.926;2022-12-18T20:51:24;40.30;;;24.42;;
1164;SDS011;571;50.930;6.926;2022-12-18T20:53:53;36.58;;;22.77;;
1164;SDS011;571;50.930;6.926;2022-12-18T20:56:21;31.00;;;20.90;;
1164;SDS011;571;50.930;6.926;2022-12-18T20:58:48;36.85;;;21.83;;
1164;SDS011;571;50.930;6.926;2022-12-18T21:01:16;22.10;;;14.25;;
1164;SDS011;571;50.930;6.926;2022-12-18T21:03:44;35.65;;;24.85;;
1164;SDS011;571;50.930;6.926;2022-12-18T21:06:11;35.03;;;21.17;;
1164;SDS011;571;50.930;6.926;2022-12-18T21:08:39;36.38;;;20.30;;
1164;SDS011;571;50.930;6.926;2022-12-18T21:11:13;34.72;;;21.88;;
1164;SDS011;571;50.930;6.926;2022-12-18T21:13:56;38.00;;;23.42;;
1164;SDS011;571;50.930;6.926;2022-12-18T21:16:23;40.35;;;24.63;;
1164;SDS011;571;50.930;6.926;2022-12-18T21:18:50;41.75;;;23.52;;
1164;SDS011;571;50.930;6.926;2022-12-18T21:21:17;37.88;;;22.27;;
1164;SDS011;571;50.930;6.926;2022-12-18T21:23:43;29.50;;;20.08;;
1164;SDS011;571;50.930;6.926;2022-12-18T21:26:14;35.05;;;21.42;;
1164;SDS011;571;50.930;6.926;2022-12-18T21:28:41;35.67;;;21.85;;
1164;SDS011;571;50.930;6.926;2022-12-18T21:31:09;31.73;;;22.55;;
1164;SDS011;571;50.930;6.926;2022-12-18T21:33:36;40.83;;;25.45;;
1164;SDS011;571;50.930;6.926;2022-12-18T21:36:03;34.42;;;21.75;;
1164;SDS011;571;50.930;6.926;2022-12-18T21:38:30;33.63;;;24.33;;
1164;SDS011;571;50.930;6.926;2022-12-18T21:40:57;43.53;;;24.98;;
1164;SDS011;571;50.930;6.926;2022-12-18T21:43:24;34.28;;;22.17;;
1164;SDS011;571;50.930;6.926;2022-12-18T21:46:09;42.42;;;24.40;;
1164;SDS011;571;50.930;6.926;2022-12-18T21:48:39;37.83;;;21.88;;
1164;SDS011;571;50.930;6.926;2022-12-18T21:51:07;36.55;;;22.73;;
1164;SDS011;571;50.930;6.926;2022-12-18T21:53:34;41.38;;;25.15;;
1164;SDS011;571;50.930;6.926;2022-12-18T21:56:01;36.10;;;23.63;;
1164;SDS011;571;50.930;6.926;2022-12-18T21:58:28;43.80;;;26.13;;
1164;SDS011;571;50.930;6.926;2022-12-18T22:00:54;41.75;;;24.23;;
1164;SDS011;571;50.930;6.926;2022-12-18T22:03:23;38.00;;;23.50;;
1164;SDS011;571;50.930;6.926;2022-12-18T22:05:50;38.85;;;23.50;;
1164;SDS011;571;50.930;6.926;2022-12-18T22:08:16;32.90;;;22.27;;
1164;SDS011;571;50.930;6.926;2022-12-18T22:10:45;35.40;;;23.23;;
1164;SDS011;571;50.930;6.926;2022-12-18T22:13:14;33.50;;;23.25;;
1164;SDS011;571;50.930;6.926;2022-12-18T22:15:41;39.75;;;24.58;;
1164;SDS011;571;50.930;6.926;2022-12-18T22:18:11;36.72;;;23.70;;
1164;SDS011;571;50.930;6.926;2022-12-18T22:20:40;34.47;;;23.57;;